createdAt,value
2023-04-23T00:01:42.108Z,97892.72
2023-04-23T00:04:13.674Z,97896.34
2023-04-23T00:06:43.574Z,97901.34
2023-04-23T00:09:14.424Z,97907.22
2023-04-23T00:11:42.738Z,97897.56
2023-04-23T00:14:11.371Z,97904.81
2023-04-23T00:16:41.768Z,97902.59
2023-04-23T00:19:11.306Z,97907.56
2023-04-23T00:21:39.440Z,97907.31
2023-04-23T00:24:07.938Z,97906.22
2023-04-23T00:26:36.007Z,97902.38
2023-04-23T00:29:04.087Z,97893.25
2023-04-23T00:31:32.204Z,97906.97
2023-04-23T00:34:00.367Z,97919.16
2023-04-23T00:36:29.782Z,97924.28
2023-04-23T00:39:00.434Z,97922.84
2023-04-23T00:41:28.621Z,97922.03
2023-04-23T00:43:57.191Z,97918.38
2023-04-23T00:46:26.186Z,97932.16
2023-04-23T00:48:54.308Z,97930.78
2023-04-23T00:51:22.955Z,97932.00
2023-04-23T00:53:53.128Z,97935.78
2023-04-23T00:56:21.513Z,97939.28
2023-04-23T00:58:50.013Z,97950.19
2023-04-23T01:01:20.927Z,97950.31
2023-04-23T01:03:50.022Z,97950.47
2023-04-23T01:06:18.226Z,97952.00
2023-04-23T01:08:46.620Z,97952.59
2023-04-23T01:11:16.821Z,97948.66
2023-04-23T01:13:45.323Z,97957.00
2023-04-23T01:16:15.788Z,97949.44
2023-04-23T01:18:46.002Z,97957.13
2023-04-23T01:21:15.958Z,97951.94
2023-04-23T01:23:46.014Z,97959.22
2023-04-23T01:26:14.960Z,97957.09
2023-04-23T01:28:43.908Z,97961.91
2023-04-23T01:31:14.411Z,97958.03
2023-04-23T01:33:44.157Z,97967.94
2023-04-23T01:36:12.443Z,97959.28
2023-04-23T01:38:40.874Z,97960.66
2023-04-23T01:41:10.484Z,97964.00
2023-04-23T01:43:39.100Z,97954.44
2023-04-23T01:46:07.209Z,97956.75
2023-04-23T01:48:35.332Z,97958.53
2023-04-23T01:51:03.451Z,97969.94
2023-04-23T01:53:31.499Z,97978.09
2023-04-23T01:56:01.338Z,97986.13
2023-04-23T01:58:30.801Z,97979.59
2023-04-23T02:00:58.943Z,97979.91
2023-04-23T02:03:27.186Z,97975.50
2023-04-23T02:05:57.514Z,97975.69
2023-04-23T02:08:26.236Z,97984.75
2023-04-23T02:10:54.345Z,97998.78
2023-04-23T02:13:22.438Z,97996.31
2023-04-23T02:15:54.396Z,98009.06
2023-04-23T02:18:22.533Z,97998.28
2023-04-23T02:20:50.752Z,97999.22
2023-04-23T02:23:18.948Z,97998.03
2023-04-23T02:25:47.013Z,97977.94
2023-04-23T02:28:14.993Z,97977.53
2023-04-23T02:30:46.010Z,97978.91
2023-04-23T02:33:15.467Z,97978.41
2023-04-23T02:35:43.510Z,97979.97
2023-04-23T02:38:11.537Z,97974.44
2023-04-23T02:40:39.619Z,97973.91
2023-04-23T02:43:07.824Z,97969.34
2023-04-23T02:45:38.023Z,97976.50
2023-04-23T02:48:06.122Z,97967.06
2023-04-23T02:50:36.044Z,97976.09
2023-04-23T02:53:04.044Z,97964.53
2023-04-23T02:55:32.615Z,97969.44
2023-04-23T02:58:01.287Z,97967.97
2023-04-23T03:00:31.411Z,97947.97
2023-04-23T03:02:59.715Z,97946.84
2023-04-23T03:05:30.181Z,97944.47
2023-04-23T03:07:59.692Z,97942.56
2023-04-23T03:10:27.808Z,97937.25
2023-04-23T03:12:56.374Z,97939.16
2023-04-23T03:15:24.657Z,97944.06
2023-04-23T03:17:53.720Z,97935.25
2023-04-23T03:20:21.895Z,97940.94
2023-04-23T03:22:49.939Z,97937.44
2023-04-23T03:25:20.401Z,97942.28
2023-04-23T03:27:48.480Z,97951.44
2023-04-23T03:30:16.523Z,97960.50
2023-04-23T03:32:44.749Z,97955.28
2023-04-23T03:35:15.101Z,97942.75
2023-04-23T03:37:46.623Z,97950.06
2023-04-23T03:40:15.504Z,97949.91
2023-04-23T03:42:49.882Z,97952.97
2023-04-23T03:45:23.519Z,97963.06
2023-04-23T03:47:51.617Z,97961.41
2023-04-23T03:50:20.230Z,97961.59
2023-04-23T03:52:57.612Z,97958.59
2023-04-23T03:55:45.637Z,97969.78
2023-04-23T03:58:15.162Z,97962.06
2023-04-23T04:00:47.121Z,97966.66
2023-04-23T04:03:17.778Z,97966.84
2023-04-23T04:05:46.089Z,97964.44
2023-04-23T04:08:14.150Z,97970.28
2023-04-23T04:10:42.139Z,97970.69
2023-04-23T04:13:10.701Z,97975.94
2023-04-23T04:15:40.035Z,97961.66
2023-04-23T04:18:08.131Z,97971.31
2023-04-23T04:20:38.492Z,97969.22
2023-04-23T04:23:08.762Z,97966.81
2023-04-23T04:25:39.830Z,97972.63
2023-04-23T04:28:09.365Z,97977.97
2023-04-23T04:30:38.188Z,97984.28
2023-04-23T04:33:08.893Z,97961.59
2023-04-23T04:35:37.250Z,97981.06
2023-04-23T04:38:05.324Z,97981.94
2023-04-23T04:40:34.441Z,97990.34
2023-04-23T04:43:05.564Z,97999.91
2023-04-23T04:45:33.639Z,98000.72
2023-04-23T04:48:01.683Z,97995.25
2023-04-23T04:50:33.039Z,97975.94
2023-04-23T04:53:01.108Z,97988.19
2023-04-23T04:55:29.092Z,97978.81
2023-04-23T04:57:59.601Z,97973.78
2023-04-23T05:00:30.588Z,97982.97
2023-04-23T05:02:58.854Z,97989.84
2023-04-23T05:05:27.613Z,97971.66
2023-04-23T05:07:59.141Z,97980.38
2023-04-23T05:10:27.188Z,97977.25
2023-04-23T05:12:55.187Z,97975.63
2023-04-23T05:15:23.385Z,97966.03
2023-04-23T05:17:53.566Z,97961.22
2023-04-23T05:20:22.358Z,97955.09
2023-04-23T05:22:50.433Z,97960.63
2023-04-23T05:25:22.028Z,97954.47
2023-04-23T05:27:50.026Z,97950.91
2023-04-23T05:30:18.380Z,97957.41
2023-04-23T05:32:46.497Z,97964.00
2023-04-23T05:35:14.547Z,97972.50
2023-04-23T05:37:42.953Z,97983.34
2023-04-23T05:40:11.276Z,97992.13
2023-04-23T05:42:40.903Z,97984.81
2023-04-23T05:45:09.610Z,97985.16
2023-04-23T05:47:39.941Z,97975.22
2023-04-23T05:50:11.561Z,97973.59
2023-04-23T05:52:39.748Z,97973.53
2023-04-23T05:55:09.707Z,97988.38
2023-04-23T05:57:38.692Z,97986.22
2023-04-23T06:00:11.715Z,97979.72
2023-04-23T06:02:42.877Z,97982.56
2023-04-23T06:05:11.370Z,97989.56
2023-04-23T06:07:42.131Z,97978.59
2023-04-23T06:10:10.926Z,97978.63
2023-04-23T06:12:39.885Z,97975.66
2023-04-23T06:15:10.213Z,97966.91
2023-04-23T06:17:38.504Z,97953.50
2023-04-23T06:20:07.596Z,97949.13
2023-04-23T06:22:35.662Z,97941.13
2023-04-23T06:25:03.829Z,97956.53
2023-04-23T06:27:32.637Z,97963.22
2023-04-23T06:30:05.548Z,97957.59
2023-04-23T06:32:34.977Z,97956.84
2023-04-23T06:35:04.573Z,97949.50
2023-04-23T06:37:32.901Z,97952.19
2023-04-23T06:40:01.198Z,97954.91
2023-04-23T06:42:29.258Z,97953.00
2023-04-23T06:45:15.400Z,97959.88
2023-04-23T06:47:45.101Z,97949.22
2023-04-23T06:50:13.142Z,97954.31
2023-04-23T06:52:41.230Z,97945.38
2023-04-23T06:55:09.978Z,97940.97
2023-04-23T06:57:38.050Z,97942.28
2023-04-23T07:00:08.141Z,97945.84
2023-04-23T07:02:39.738Z,97941.56
2023-04-23T07:05:10.390Z,97932.28
2023-04-23T07:07:38.521Z,97937.00
2023-04-23T07:10:07.102Z,97931.25
2023-04-23T07:12:35.203Z,97929.63
2023-04-23T07:15:03.492Z,97928.69
2023-04-23T07:17:31.986Z,97926.66
2023-04-23T07:20:00.210Z,97936.97
2023-04-23T07:22:30.489Z,97921.91
2023-04-23T07:24:58.724Z,97932.34
2023-04-23T07:27:26.866Z,97932.63
2023-04-23T07:29:54.880Z,97933.28
2023-04-23T07:32:23.695Z,97925.88
2023-04-23T07:34:52.423Z,97928.38
2023-04-23T07:37:21.657Z,97923.00
2023-04-23T07:39:51.069Z,97922.69
2023-04-23T07:42:19.126Z,97930.63
2023-04-23T07:44:47.172Z,97916.03
2023-04-23T07:47:15.128Z,97922.78
2023-04-23T07:49:43.605Z,97917.47
2023-04-23T07:52:15.490Z,97913.88
2023-04-23T07:54:43.572Z,97909.81
2023-04-23T07:57:13.129Z,97910.03
2023-04-23T07:59:44.061Z,97902.16
2023-04-23T08:02:15.096Z,97905.38
2023-04-23T08:04:43.476Z,97907.03
2023-04-23T08:07:11.667Z,97907.28
2023-04-23T08:09:40.508Z,97905.41
2023-04-23T08:12:08.662Z,97895.06
2023-04-23T08:14:38.025Z,97882.75
2023-04-23T08:17:11.931Z,97890.63
2023-04-23T08:19:40.229Z,97884.75
2023-04-23T08:22:10.849Z,97885.38
2023-04-23T08:24:41.215Z,97881.16
2023-04-23T08:27:09.353Z,97875.09
2023-04-23T08:29:38.888Z,97871.09
2023-04-23T08:32:07.149Z,97867.72
2023-04-23T08:34:35.865Z,97868.84
2023-04-23T08:37:08.490Z,97848.13
2023-04-23T08:39:38.948Z,97872.56
2023-04-23T08:42:11.908Z,97872.53
2023-04-23T08:44:42.896Z,97872.81
2023-04-23T08:47:13.487Z,97876.03
2023-04-23T08:49:43.102Z,97871.19
2023-04-23T08:52:16.153Z,97862.53
2023-04-23T08:54:46.834Z,97867.16
2023-04-23T08:57:15.126Z,97856.63
2023-04-23T08:59:46.112Z,97856.16
2023-04-23T09:02:15.860Z,97859.22
2023-04-23T09:04:44.023Z,97863.38
2023-04-23T09:07:15.215Z,97862.53
2023-04-23T09:09:43.529Z,97854.41
2023-04-23T09:12:11.721Z,97848.78
2023-04-23T09:14:39.815Z,97851.78
2023-04-23T09:17:09.232Z,97849.25
2023-04-23T09:19:39.396Z,97847.53
2023-04-23T09:22:08.147Z,97845.97
2023-04-23T09:24:38.577Z,97844.41
2023-04-23T09:27:07.047Z,97844.03
2023-04-23T09:29:35.850Z,97829.66
2023-04-23T09:32:07.522Z,97823.41
2023-04-23T09:34:37.966Z,97822.41
2023-04-23T09:37:07.929Z,97816.13
2023-04-23T09:39:36.308Z,97819.16
2023-04-23T09:42:05.034Z,97810.09
2023-04-23T09:44:33.831Z,97822.25
2023-04-23T09:47:09.486Z,97811.59
2023-04-23T09:49:47.905Z,97804.47
2023-04-23T09:52:16.168Z,97807.13
2023-04-23T09:54:47.350Z,97806.44
2023-04-23T09:57:15.641Z,97799.16
2023-04-23T09:59:48.863Z,97793.91
2023-04-23T10:02:21.283Z,97793.47
2023-04-23T10:05:00.679Z,97798.44
2023-04-23T10:07:35.418Z,97781.88
2023-04-23T10:10:03.760Z,97776.06
2023-04-23T10:12:52.318Z,97774.78
2023-04-23T10:15:19.923Z,97773.81
2023-04-23T10:17:48.099Z,97777.63
2023-04-23T10:20:17.977Z,97775.88
2023-04-23T10:22:47.375Z,97765.84
2023-04-23T10:25:16.148Z,97764.72
2023-04-23T10:27:53.802Z,97768.84
2023-04-23T10:30:23.136Z,97765.75
2023-04-23T10:32:51.617Z,97766.22
2023-04-23T10:35:21.212Z,97755.97
2023-04-23T10:37:51.504Z,97753.06
2023-04-23T10:40:21.987Z,97739.16
2023-04-23T10:42:50.414Z,97750.53
2023-04-23T10:47:50.280Z,97742.75
2023-04-23T10:50:23.928Z,97746.19
2023-04-23T10:52:53.639Z,97737.69
2023-04-23T10:55:22.712Z,97731.91
2023-04-23T10:58:00.801Z,97731.63
2023-04-23T11:00:30.770Z,97718.03
2023-04-23T11:02:58.961Z,97725.47
2023-04-23T11:05:29.279Z,97714.25
2023-04-23T11:08:18.133Z,97717.81
2023-04-23T11:10:52.637Z,97714.94
2023-04-23T11:13:24.992Z,97713.75
2023-04-23T11:16:11.767Z,97712.03
2023-04-23T11:18:54.780Z,97706.22
2023-04-23T11:21:24.202Z,97712.41
2023-04-23T11:23:52.397Z,97708.06
2023-04-23T11:26:20.804Z,97704.69
2023-04-23T11:28:51.012Z,97695.56
2023-04-23T11:31:21.507Z,97689.94
2023-04-23T11:33:49.607Z,97681.31
2023-04-23T11:36:17.701Z,97684.53
2023-04-23T11:38:47.452Z,97679.59
2023-04-23T11:41:23.457Z,97674.31
2023-04-23T11:43:51.769Z,97669.56
2023-04-23T11:46:19.778Z,97657.91
2023-04-23T11:48:49.663Z,97657.06
2023-04-23T11:51:17.736Z,97653.84
2023-04-23T11:53:47.358Z,97646.28
2023-04-23T11:56:17.088Z,97649.53
2023-04-23T11:58:45.179Z,97642.66
2023-04-23T12:01:13.273Z,97632.53
2023-04-23T12:03:41.547Z,97620.16
2023-04-23T12:06:09.695Z,97616.19
2023-04-23T12:08:40.386Z,97612.16
2023-04-23T12:11:09.766Z,97620.25
2023-04-23T12:13:40.557Z,97598.16
2023-04-23T12:16:10.499Z,97603.41
2023-04-23T12:18:44.373Z,97573.19
2023-04-23T12:21:13.302Z,97598.09
2023-04-23T12:23:44.455Z,97582.94
2023-04-23T12:26:15.236Z,97579.16
2023-04-23T12:28:51.210Z,97574.81
2023-04-23T12:31:22.961Z,97574.00
2023-04-23T12:33:55.001Z,97568.75
2023-04-23T12:36:26.974Z,97570.44
2023-04-23T12:38:55.114Z,97572.41
2023-04-23T12:41:26.569Z,97549.97
2023-04-23T12:43:54.601Z,97556.94
2023-04-23T12:46:24.836Z,97563.66
2023-04-23T12:48:52.939Z,97543.44
2023-04-23T12:51:21.036Z,97543.13
2023-04-23T12:53:49.079Z,97528.16
2023-04-23T12:56:17.117Z,97528.25
2023-04-23T12:58:46.556Z,97516.56
2023-04-23T13:01:17.444Z,97529.91
2023-04-23T13:03:45.648Z,97530.38
2023-04-23T13:06:13.771Z,97526.31
2023-04-23T13:08:41.822Z,97517.63
2023-04-23T13:11:09.829Z,97519.28
2023-04-23T13:13:37.825Z,97497.22
2023-04-23T13:16:07.779Z,97495.38
2023-04-23T13:18:35.859Z,97494.63
2023-04-23T13:21:03.949Z,97485.59
2023-04-23T13:23:32.094Z,97490.63
2023-04-23T13:26:00.156Z,97484.75
2023-04-23T13:28:28.266Z,97476.03
2023-04-23T13:30:56.255Z,97470.59
2023-04-23T13:33:26.142Z,97472.78
2023-04-23T13:35:54.585Z,97465.00
2023-04-23T13:38:22.672Z,97457.63
2023-04-23T13:40:53.538Z,97441.19
2023-04-23T13:43:22.063Z,97436.91
2023-04-23T13:45:50.255Z,97438.41
2023-04-23T13:48:18.832Z,97428.94
2023-04-23T13:50:48.326Z,97429.44
2023-04-23T13:53:16.397Z,97426.03
2023-04-23T13:55:44.489Z,97422.28
2023-04-23T13:58:14.857Z,97420.41
2023-04-23T14:00:45.066Z,97416.97
2023-04-23T14:03:13.113Z,97415.09
2023-04-23T14:05:43.401Z,97410.34
2023-04-23T14:08:14.892Z,97403.47
2023-04-23T14:10:43.765Z,97406.28
2023-04-23T14:13:14.584Z,97397.16
2023-04-23T14:15:43.141Z,97398.50
2023-04-23T14:18:11.243Z,97394.09
2023-04-23T14:20:39.292Z,97392.56
2023-04-23T14:23:29.107Z,97385.91
2023-04-23T14:26:04.328Z,97388.28
2023-04-23T14:28:34.888Z,97392.28
2023-04-23T14:31:05.456Z,97382.59
2023-04-23T14:33:33.604Z,97375.97
2023-04-23T14:36:01.670Z,97371.78
2023-04-23T14:38:29.755Z,97366.38
2023-04-23T14:40:57.796Z,97364.03
2023-04-23T14:43:27.200Z,97369.47
2023-04-23T14:45:57.494Z,97358.16
2023-04-23T14:48:25.648Z,97355.13
2023-04-23T14:50:53.991Z,97361.28
2023-04-23T14:53:22.009Z,97350.59
2023-04-23T14:55:50.169Z,97345.28
2023-04-23T14:58:18.199Z,97342.69
2023-04-23T15:00:48.904Z,97350.09
2023-04-23T15:03:17.214Z,97342.97
2023-04-23T15:05:45.511Z,97347.84
2023-04-23T15:08:14.031Z,97340.72
2023-04-23T15:10:42.106Z,97331.38
2023-04-23T15:13:16.109Z,97335.75
2023-04-23T15:15:45.675Z,97328.63
2023-04-23T15:18:15.670Z,97338.50
2023-04-23T15:20:44.380Z,97325.72
2023-04-23T15:23:12.550Z,97333.31
2023-04-23T15:25:40.926Z,97328.63
2023-04-23T15:28:09.302Z,97324.44
2023-04-23T15:30:37.314Z,97323.66
2023-04-23T15:33:05.383Z,97321.59
2023-04-23T15:35:37.137Z,97314.72
2023-04-23T15:38:05.251Z,97316.31
2023-04-23T15:40:33.526Z,97306.66
2023-04-23T15:43:03.552Z,97304.09
2023-04-23T15:45:31.662Z,97310.97
2023-04-23T15:47:59.732Z,97313.28
2023-04-23T15:50:27.866Z,97311.00
2023-04-23T15:52:58.994Z,97307.94
2023-04-23T15:55:27.195Z,97308.06
2023-04-23T15:57:55.368Z,97309.03
2023-04-23T16:00:25.777Z,97308.69
2023-04-23T16:02:56.182Z,97310.31
2023-04-23T16:05:26.602Z,97310.44
2023-04-23T16:07:54.690Z,97307.22
2023-04-23T16:10:24.491Z,97303.00
2023-04-23T16:12:55.245Z,97308.78
2023-04-23T16:15:26.670Z,97314.19
2023-04-23T16:17:56.027Z,97315.38
2023-04-23T16:20:24.379Z,97317.63
2023-04-23T16:22:52.533Z,97327.72
2023-04-23T16:25:20.635Z,97337.56
2023-04-23T16:27:50.203Z,97353.91
2023-04-23T16:30:18.227Z,97359.94
2023-04-23T16:32:46.580Z,97351.00
2023-04-23T16:35:16.856Z,97377.00
2023-04-23T16:37:44.916Z,97383.03
2023-04-23T16:40:15.782Z,97392.22
2023-04-23T16:42:44.053Z,97396.59
2023-04-23T16:45:13.612Z,97405.63
2023-04-23T16:47:43.513Z,97416.94
2023-04-23T16:50:11.889Z,97434.78
2023-04-23T16:52:42.189Z,97450.56
2023-04-23T16:55:10.556Z,97455.09
2023-04-23T16:57:40.650Z,97451.41
2023-04-23T17:00:09.798Z,97475.94
2023-04-23T17:02:41.289Z,97468.56
2023-04-23T17:05:09.810Z,97451.25
2023-04-23T17:07:38.466Z,97456.75
2023-04-23T17:10:07.072Z,97449.78
2023-04-23T17:12:35.139Z,97433.00
2023-04-23T17:15:03.214Z,97429.44
2023-04-23T17:17:31.291Z,97415.19
2023-04-23T17:20:01.270Z,97411.38
2023-04-23T17:22:29.403Z,97418.47
2023-04-23T17:24:57.412Z,97432.09
2023-04-23T17:27:25.491Z,97433.59
2023-04-23T17:29:53.471Z,97429.94
2023-04-23T17:32:21.862Z,97433.84
2023-04-23T17:34:59.338Z,97432.78
2023-04-23T17:37:36.243Z,97430.81
2023-04-23T17:40:05.737Z,97433.53
2023-04-23T17:42:35.600Z,97425.66
2023-04-23T17:45:04.403Z,97425.16
2023-04-23T17:47:34.391Z,97426.47
2023-04-23T17:50:02.521Z,97424.09
2023-04-23T17:52:30.567Z,97425.41
2023-04-23T17:55:01.081Z,97426.81
2023-04-23T17:57:29.242Z,97430.22
2023-04-23T17:59:59.591Z,97432.34
2023-04-23T18:02:27.844Z,97425.00
2023-04-23T18:04:56.234Z,97426.84
2023-04-23T18:07:24.457Z,97426.34
2023-04-23T18:09:52.610Z,97423.50
2023-04-23T18:12:22.130Z,97431.06
2023-04-23T18:14:50.587Z,97426.00
2023-04-23T18:17:18.668Z,97436.34
2023-04-23T18:19:46.822Z,97423.75
2023-04-23T18:22:14.960Z,97419.41
2023-04-23T18:24:43.234Z,97426.81
2023-04-23T18:27:11.660Z,97426.88
2023-04-23T18:29:41.370Z,97433.03
2023-04-23T18:32:10.942Z,97432.78
2023-04-23T18:34:39.816Z,97433.00
2023-04-23T18:37:11.815Z,97437.69
2023-04-23T18:39:40.528Z,97438.47
2023-04-23T18:42:11.150Z,97452.34
2023-04-23T18:44:39.756Z,97456.50
2023-04-23T18:47:09.484Z,97461.06
2023-04-23T18:49:45.736Z,97464.94
2023-04-23T18:52:14.030Z,97465.75
2023-04-23T18:54:44.066Z,97475.78
2023-04-23T18:57:12.306Z,97488.56
2023-04-23T18:59:40.493Z,97494.81
2023-04-23T19:02:10.892Z,97504.03
2023-04-23T19:04:40.041Z,97511.41
2023-04-23T19:07:08.143Z,97511.91
2023-04-23T19:09:36.266Z,97515.72
2023-04-23T19:12:04.609Z,97523.88
2023-04-23T19:14:32.800Z,97522.75
2023-04-23T19:17:01.163Z,97523.59
2023-04-23T19:19:31.984Z,97528.16
2023-04-23T19:22:03.229Z,97519.47
2023-04-23T19:24:32.079Z,97515.16
2023-04-23T19:27:00.866Z,97521.41
2023-04-23T19:29:31.347Z,97528.47
2023-04-23T19:31:59.432Z,97531.47
2023-04-23T19:34:27.443Z,97536.34
2023-04-23T19:36:56.856Z,97542.34
2023-04-23T19:39:27.061Z,97532.56
2023-04-23T19:41:55.111Z,97536.91
2023-04-23T19:44:23.142Z,97524.94
2023-04-23T19:46:53.544Z,97514.91
2023-04-23T19:49:21.673Z,97509.44
2023-04-23T19:51:51.049Z,97519.28
2023-04-23T19:54:22.242Z,97523.88
2023-04-23T19:56:51.722Z,97521.66
2023-04-23T19:59:20.894Z,97506.19
2023-04-23T20:01:49.185Z,97506.75
2023-04-23T20:04:17.422Z,97501.88
2023-04-23T20:06:45.762Z,97487.78
2023-04-23T20:09:19.206Z,97486.38
2023-04-23T20:11:49.151Z,97485.56
2023-04-23T20:14:17.389Z,97492.91
2023-04-23T20:16:48.381Z,97495.63
2023-04-23T20:19:19.362Z,97498.03
2023-04-23T20:21:47.728Z,97504.31
2023-04-23T20:24:16.488Z,97508.94
2023-04-23T20:26:44.724Z,97511.66
2023-04-23T20:29:14.441Z,97507.28
2023-04-23T20:31:42.746Z,97509.69
2023-04-23T20:34:13.442Z,97520.88
2023-04-23T20:36:47.426Z,97527.91
2023-04-23T20:39:17.073Z,97526.25
2023-04-23T20:41:46.520Z,97524.38
2023-04-23T20:44:16.011Z,97522.19
2023-04-23T20:46:45.461Z,97531.38
2023-04-23T20:49:13.759Z,97522.75
2023-04-23T20:51:42.027Z,97526.56
2023-04-23T20:54:11.198Z,97527.91
2023-04-23T20:56:39.289Z,97523.28
2023-04-23T20:59:07.302Z,97523.28
2023-04-23T21:01:38.302Z,97518.28
2023-04-23T21:04:06.817Z,97524.06
2023-04-23T21:06:35.045Z,97531.47
2023-04-23T21:09:04.457Z,97534.66
2023-04-23T21:11:33.064Z,97535.72
2023-04-23T21:14:02.031Z,97537.09
2023-04-23T21:16:30.464Z,97537.63
2023-04-23T21:19:00.141Z,97537.31
2023-04-23T21:21:31.769Z,97529.38
2023-04-23T21:24:00.758Z,97532.41
2023-04-23T21:26:29.185Z,97533.81
2023-04-23T21:28:57.391Z,97530.97
2023-04-23T21:31:30.388Z,97516.94
2023-04-23T21:33:59.763Z,97518.78
2023-04-23T21:36:28.397Z,97528.16
2023-04-23T21:38:56.397Z,97523.13
2023-04-23T21:41:24.456Z,97528.59
2023-04-23T21:43:52.475Z,97528.97
2023-04-23T21:46:20.688Z,97528.75
2023-04-23T21:48:49.246Z,97530.97
2023-04-23T21:51:18.975Z,97520.66
2023-04-23T21:53:46.982Z,97528.91
2023-04-23T21:56:17.367Z,97536.47
2023-04-23T21:58:45.542Z,97533.22
2023-04-23T22:02:37.976Z,97532.94
2023-04-23T22:05:09.380Z,97539.53
2023-04-23T22:07:41.171Z,97531.19
2023-04-23T22:10:11.366Z,97531.38
2023-04-23T22:12:39.820Z,97525.19
2023-04-23T22:15:08.948Z,97520.84
2023-04-23T22:17:39.091Z,97515.41
2023-04-23T22:20:08.114Z,97510.38
2023-04-23T22:22:36.953Z,97515.47
2023-04-23T22:25:06.763Z,97511.19
2023-04-23T22:27:37.741Z,97517.13
2023-04-23T22:30:06.449Z,97512.88
2023-04-23T22:32:38.515Z,97518.72
2023-04-23T22:35:07.216Z,97523.03
2023-04-23T22:37:35.752Z,97521.97
2023-04-23T22:40:04.988Z,97514.94
2023-04-23T22:42:33.132Z,97510.75
2023-04-23T22:45:01.117Z,97510.00
2023-04-23T22:47:29.158Z,97508.16
2023-04-23T22:49:58.826Z,97521.09
2023-04-23T22:52:28.925Z,97515.72
2023-04-23T22:54:57.634Z,97527.63
2023-04-23T22:57:25.940Z,97515.53
2023-04-23T22:59:54.079Z,97522.53
2023-04-23T23:02:22.222Z,97519.56
2023-04-23T23:04:52.534Z,97520.63
2023-04-23T23:07:21.942Z,97516.94
2023-04-23T23:09:52.058Z,97510.66
2023-04-23T23:12:22.771Z,97514.34
2023-04-23T23:14:50.804Z,97512.22
2023-04-23T23:17:18.904Z,97513.22
2023-04-23T23:19:46.894Z,97506.03
2023-04-23T23:22:17.395Z,97507.47
2023-04-23T23:24:46.867Z,97503.16
2023-04-23T23:27:15.076Z,97509.81
2023-04-23T23:29:43.476Z,97501.75
2023-04-23T23:32:11.741Z,97500.56
2023-04-23T23:34:39.746Z,97494.66
2023-04-23T23:37:07.758Z,97498.25
2023-04-23T23:39:35.804Z,97494.03
2023-04-23T23:42:07.318Z,97485.94
2023-04-23T23:44:51.267Z,97487.28
2023-04-23T23:47:19.279Z,97501.06
2023-04-23T23:49:47.300Z,97491.84
2023-04-23T23:52:15.305Z,97493.00
2023-04-23T23:54:43.299Z,97494.13
2023-04-23T23:57:13.009Z,97488.91
2023-04-23T23:59:41.320Z,97486.88
